sensor_id;sensor_type;location;lat;lon;timestamp;P1;durP1;ratioP1;P2;durP2;ratioP2
12145;SDS011;6136;47.032;15.398;2023-09-12T00:01:28;16.13;;;14.63;;
12145;SDS011;6136;47.032;15.398;2023-09-12T00:03:59;18.03;;;15.00;;
12145;SDS011;6136;47.032;15.398;2023-09-12T00:06:28;16.20;;;14.50;;
12145;SDS011;6136;47.032;15.398;2023-09-12T00:08:57;16.30;;;14.60;;
12145;SDS011;6136;47.032;15.398;2023-09-12T00:11:25;15.17;;;13.73;;
12145;SDS011;6136;47.032;15.398;2023-09-12T00:13:53;17.10;;;15.30;;
12145;SDS011;6136;47.032;15.398;2023-09-12T00:16:21;16.30;;;14.80;;
12145;SDS011;6136;47.032;15.398;2023-09-12T00:18:49;16.23;;;14.73;;
12145;SDS011;6136;47.032;15.398;2023-09-12T00:21:18;16.43;;;14.83;;
12145;SDS011;6136;47.032;15.398;2023-09-12T00:23:50;18.97;;;14.63;;
12145;SDS011;6136;47.032;15.398;2023-09-12T00:26:19;16.50;;;14.77;;
12145;SDS011;6136;47.032;15.398;2023-09-12T00:28:49;16.07;;;14.53;;
12145;SDS011;6136;47.032;15.398;2023-09-12T00:31:17;15.60;;;13.93;;
12145;SDS011;6136;47.032;15.398;2023-09-12T00:33:45;16.60;;;14.80;;
12145;SDS011;6136;47.032;15.398;2023-09-12T00:36:13;16.03;;;14.43;;
12145;SDS011;6136;47.032;15.398;2023-09-12T00:38:41;16.43;;;14.73;;
12145;SDS011;6136;47.032;15.398;2023-09-12T00:41:11;17.27;;;13.90;;
12145;SDS011;6136;47.032;15.398;2023-09-12T00:43:39;15.20;;;13.77;;
12145;SDS011;6136;47.032;15.398;2023-09-12T00:46:08;16.03;;;14.43;;
12145;SDS011;6136;47.032;15.398;2023-09-12T00:48:36;17.13;;;14.27;;
12145;SDS011;6136;47.032;15.398;2023-09-12T00:51:07;16.30;;;13.67;;
12145;SDS011;6136;47.032;15.398;2023-09-12T00:53:35;15.57;;;14.07;;
12145;SDS011;6136;47.032;15.398;2023-09-12T00:56:04;16.07;;;14.47;;
12145;SDS011;6136;47.032;15.398;2023-09-12T00:58:33;15.63;;;14.03;;
12145;SDS011;6136;47.032;15.398;2023-09-12T01:01:01;15.47;;;13.97;;
12145;SDS011;6136;47.032;15.398;2023-09-12T01:03:31;16.20;;;14.27;;
12145;SDS011;6136;47.032;15.398;2023-09-12T01:06:02;16.27;;;14.57;;
12145;SDS011;6136;47.032;15.398;2023-09-12T01:08:32;15.50;;;13.90;;
12145;SDS011;6136;47.032;15.398;2023-09-12T01:11:00;15.17;;;13.63;;
12145;SDS011;6136;47.032;15.398;2023-09-12T01:13:29;15.83;;;14.10;;
12145;SDS011;6136;47.032;15.398;2023-09-12T01:15:59;16.53;;;14.83;;
12145;SDS011;6136;47.032;15.398;2023-09-12T01:18:28;15.80;;;14.20;;
12145;SDS011;6136;47.032;15.398;2023-09-12T01:21:04;17.53;;;14.33;;
12145;SDS011;6136;47.032;15.398;2023-09-12T01:23:57;16.33;;;14.30;;
12145;SDS011;6136;47.032;15.398;2023-09-12T01:26:40;15.90;;;13.83;;
12145;SDS011;6136;47.032;15.398;2023-09-12T01:29:19;16.47;;;14.17;;
12145;SDS011;6136;47.032;15.398;2023-09-12T01:31:49;15.40;;;13.87;;
12145;SDS011;6136;47.032;15.398;2023-09-12T01:34:20;16.77;;;13.77;;
12145;SDS011;6136;47.032;15.398;2023-09-12T01:36:48;16.77;;;14.67;;
12145;SDS011;6136;47.032;15.398;2023-09-12T01:39:16;15.77;;;14.07;;
12145;SDS011;6136;47.032;15.398;2023-09-12T01:41:45;15.50;;;13.90;;
12145;SDS011;6136;47.032;15.398;2023-09-12T01:44:15;16.23;;;14.27;;
12145;SDS011;6136;47.032;15.398;2023-09-12T01:46:46;15.83;;;14.27;;
12145;SDS011;6136;47.032;15.398;2023-09-12T01:49:16;16.87;;;15.00;;
12145;SDS011;6136;47.032;15.398;2023-09-12T01:51:49;15.80;;;14.20;;
12145;SDS011;6136;47.032;15.398;2023-09-12T01:54:18;15.23;;;13.73;;
12145;SDS011;6136;47.032;15.398;2023-09-12T01:56:48;16.63;;;13.97;;
12145;SDS011;6136;47.032;15.398;2023-09-12T01:59:16;15.70;;;14.10;;
12145;SDS011;6136;47.032;15.398;2023-09-12T02:01:45;15.73;;;13.73;;
12145;SDS011;6136;47.032;15.398;2023-09-12T02:04:14;14.83;;;13.40;;
12145;SDS011;6136;47.032;15.398;2023-09-12T02:06:42;14.70;;;13.30;;
12145;SDS011;6136;47.032;15.398;2023-09-12T02:09:10;14.97;;;13.47;;
12145;SDS011;6136;47.032;15.398;2023-09-12T02:11:39;14.50;;;13.00;;
12145;SDS011;6136;47.032;15.398;2023-09-12T02:14:07;15.27;;;13.77;;
12145;SDS011;6136;47.032;15.398;2023-09-12T02:16:36;18.93;;;14.33;;
12145;SDS011;6136;47.032;15.398;2023-09-12T02:19:10;16.10;;;14.20;;
12145;SDS011;6136;47.032;15.398;2023-09-12T02:21:38;17.67;;;14.57;;
12145;SDS011;6136;47.032;15.398;2023-09-12T02:24:07;15.73;;;13.93;;
12145;SDS011;6136;47.032;15.398;2023-09-12T02:26:35;14.63;;;13.13;;
12145;SDS011;6136;47.032;15.398;2023-09-12T02:29:03;16.43;;;14.80;;
12145;SDS011;6136;47.032;15.398;2023-09-12T02:31:33;15.67;;;13.63;;
12145;SDS011;6136;47.032;15.398;2023-09-12T02:34:02;15.63;;;13.93;;
12145;SDS011;6136;47.032;15.398;2023-09-12T02:36:32;15.73;;;14.23;;
12145;SDS011;6136;47.032;15.398;2023-09-12T02:39:00;14.47;;;13.07;;
12145;SDS011;6136;47.032;15.398;2023-09-12T02:41:30;16.70;;;14.57;;
12145;SDS011;6136;47.032;15.398;2023-09-12T02:43:58;14.60;;;13.10;;
12145;SDS011;6136;47.032;15.398;2023-09-12T02:46:26;17.33;;;14.33;;
12145;SDS011;6136;47.032;15.398;2023-09-12T02:48:55;18.13;;;13.63;;
12145;SDS011;6136;47.032;15.398;2023-09-12T02:51:24;14.47;;;13.07;;
12145;SDS011;6136;47.032;15.398;2023-09-12T02:53:54;15.37;;;13.77;;
12145;SDS011;6136;47.032;15.398;2023-09-12T02:56:25;15.70;;;14.03;;
12145;SDS011;6136;47.032;15.398;2023-09-12T02:58:54;15.70;;;13.97;;
12145;SDS011;6136;47.032;15.398;2023-09-12T03:01:22;15.13;;;13.10;;
12145;SDS011;6136;47.032;15.398;2023-09-12T03:03:55;14.73;;;13.23;;
12145;SDS011;6136;47.032;15.398;2023-09-12T03:06:23;15.20;;;13.70;;
12145;SDS011;6136;47.032;15.398;2023-09-12T03:08:52;16.43;;;14.77;;
12145;SDS011;6136;47.032;15.398;2023-09-12T03:11:21;22.63;;;13.83;;
12145;SDS011;6136;47.032;15.398;2023-09-12T03:13:49;15.43;;;13.83;;
12145;SDS011;6136;47.032;15.398;2023-09-12T03:16:18;14.17;;;12.77;;
12145;SDS011;6136;47.032;15.398;2023-09-12T03:18:47;15.27;;;13.27;;
12145;SDS011;6136;47.032;15.398;2023-09-12T03:21:15;14.37;;;12.87;;
12145;SDS011;6136;47.032;15.398;2023-09-12T03:23:43;17.50;;;13.87;;
12145;SDS011;6136;47.032;15.398;2023-09-12T03:26:12;15.93;;;12.87;;
12145;SDS011;6136;47.032;15.398;2023-09-12T03:28:41;15.73;;;14.10;;
12145;SDS011;6136;47.032;15.398;2023-09-12T03:31:10;14.83;;;13.33;;
12145;SDS011;6136;47.032;15.398;2023-09-12T03:33:41;15.77;;;13.67;;
12145;SDS011;6136;47.032;15.398;2023-09-12T03:36:15;17.53;;;14.27;;
12145;SDS011;6136;47.032;15.398;2023-09-12T03:38:43;15.67;;;14.07;;
12145;SDS011;6136;47.032;15.398;2023-09-12T03:41:11;17.93;;;14.40;;
12145;SDS011;6136;47.032;15.398;2023-09-12T03:43:42;15.97;;;14.30;;
12145;SDS011;6136;47.032;15.398;2023-09-12T03:46:10;16.73;;;14.13;;
12145;SDS011;6136;47.032;15.398;2023-09-12T03:48:38;16.07;;;14.37;;
12145;SDS011;6136;47.032;15.398;2023-09-12T03:51:07;15.23;;;13.73;;
12145;SDS011;6136;47.032;15.398;2023-09-12T03:53:35;17.17;;;15.23;;
12145;SDS011;6136;47.032;15.398;2023-09-12T03:56:03;15.37;;;13.87;;
12145;SDS011;6136;47.032;15.398;2023-09-12T03:58:32;16.00;;;14.43;;
12145;SDS011;6136;47.032;15.398;2023-09-12T04:01:02;17.40;;;14.83;;
12145;SDS011;6136;47.032;15.398;2023-09-12T04:03:30;17.13;;;15.33;;
12145;SDS011;6136;47.032;15.398;2023-09-12T04:05:58;19.13;;;15.57;;
12145;SDS011;6136;47.032;15.398;2023-09-12T04:08:26;17.27;;;14.17;;
12145;SDS011;6136;47.032;15.398;2023-09-12T04:10:55;19.20;;;15.10;;
12145;SDS011;6136;47.032;15.398;2023-09-12T04:13:23;16.67;;;15.03;;
12145;SDS011;6136;47.032;15.398;2023-09-12T04:15:51;16.27;;;14.60;;
12145;SDS011;6136;47.032;15.398;2023-09-12T04:18:21;16.57;;;14.77;;
12145;SDS011;6136;47.032;15.398;2023-09-12T04:20:49;16.80;;;15.00;;
12145;SDS011;6136;47.032;15.398;2023-09-12T04:23:17;16.20;;;14.53;;
12145;SDS011;6136;47.032;15.398;2023-09-12T04:25:45;18.30;;;15.37;;
12145;SDS011;6136;47.032;15.398;2023-09-12T04:28:14;16.97;;;15.07;;
12145;SDS011;6136;47.032;15.398;2023-09-12T04:30:43;15.97;;;14.07;;
12145;SDS011;6136;47.032;15.398;2023-09-12T04:33:13;17.63;;;14.97;;
12145;SDS011;6136;47.032;15.398;2023-09-12T04:35:43;16.43;;;14.17;;
12145;SDS011;6136;47.032;15.398;2023-09-12T04:38:13;16.47;;;14.47;;
12145;SDS011;6136;47.032;15.398;2023-09-12T04:40:42;16.70;;;14.87;;
12145;SDS011;6136;47.032;15.398;2023-09-12T04:43:10;18.20;;;15.37;;
12145;SDS011;6136;47.032;15.398;2023-09-12T04:45:39;17.43;;;13.80;;
12145;SDS011;6136;47.032;15.398;2023-09-12T04:48:07;15.67;;;14.03;;
12145;SDS011;6136;47.032;15.398;2023-09-12T04:50:40;17.13;;;14.00;;
12145;SDS011;6136;47.032;15.398;2023-09-12T04:53:10;16.17;;;14.47;;
12145;SDS011;6136;47.032;15.398;2023-09-12T04:55:39;18.40;;;14.60;;
12145;SDS011;6136;47.032;15.398;2023-09-12T04:58:07;16.90;;;15.10;;
12145;SDS011;6136;47.032;15.398;2023-09-12T05:00:35;17.50;;;15.60;;
12145;SDS011;6136;47.032;15.398;2023-09-12T05:03:04;15.87;;;14.17;;
12145;SDS011;6136;47.032;15.398;2023-09-12T05:05:34;15.77;;;14.00;;
12145;SDS011;6136;47.032;15.398;2023-09-12T05:08:04;16.23;;;14.50;;
12145;SDS011;6136;47.032;15.398;2023-09-12T05:10:33;17.13;;;14.60;;
12145;SDS011;6136;47.032;15.398;2023-09-12T05:13:02;19.33;;;14.90;;
12145;SDS011;6136;47.032;15.398;2023-09-12T05:15:30;20.17;;;15.40;;
12145;SDS011;6136;47.032;15.398;2023-09-12T05:17:59;19.53;;;15.37;;
12145;SDS011;6136;47.032;15.398;2023-09-12T05:20:27;17.63;;;15.47;;
12145;SDS011;6136;47.032;15.398;2023-09-12T05:22:55;16.37;;;14.63;;
12145;SDS011;6136;47.032;15.398;2023-09-12T05:25:23;18.13;;;15.53;;
12145;SDS011;6136;47.032;15.398;2023-09-12T05:27:54;16.63;;;14.83;;
12145;SDS011;6136;47.032;15.398;2023-09-12T05:30:23;17.43;;;15.63;;
12145;SDS011;6136;47.032;15.398;2023-09-12T05:32:51;17.97;;;16.10;;
12145;SDS011;6136;47.032;15.398;2023-09-12T05:35:20;16.70;;;15.00;;
12145;SDS011;6136;47.032;15.398;2023-09-12T05:37:50;16.93;;;15.13;;
12145;SDS011;6136;47.032;15.398;2023-09-12T05:40:18;17.37;;;15.57;;
12145;SDS011;6136;47.032;15.398;2023-09-12T05:42:47;19.80;;;16.60;;
12145;SDS011;6136;47.032;15.398;2023-09-12T05:45:16;19.43;;;17.43;;
12145;SDS011;6136;47.032;15.398;2023-09-12T05:47:45;19.40;;;17.30;;
12145;SDS011;6136;47.032;15.398;2023-09-12T05:50:14;20.43;;;17.00;;
12145;SDS011;6136;47.032;15.398;2023-09-12T05:52:43;18.80;;;17.00;;
12145;SDS011;6136;47.032;15.398;2023-09-12T05:55:12;19.13;;;17.13;;
12145;SDS011;6136;47.032;15.398;2023-09-12T05:57:40;18.60;;;16.60;;
12145;SDS011;6136;47.032;15.398;2023-09-12T06:00:09;19.63;;;17.55;;
12145;SDS011;6136;47.032;15.398;2023-09-12T06:02:41;20.67;;;16.17;;
12145;SDS011;6136;47.032;15.398;2023-09-12T06:05:09;19.08;;;16.45;;
12145;SDS011;6136;47.032;15.398;2023-09-12T06:07:38;18.30;;;16.50;;
12145;SDS011;6136;47.032;15.398;2023-09-12T06:10:08;17.63;;;15.75;;
12145;SDS011;6136;47.032;15.398;2023-09-12T06:12:37;21.05;;;16.15;;
12145;SDS011;6136;47.032;15.398;2023-09-12T06:15:05;19.15;;;16.45;;
12145;SDS011;6136;47.032;15.398;2023-09-12T06:17:34;18.85;;;15.70;;
12145;SDS011;6136;47.032;15.398;2023-09-12T06:20:04;20.63;;;15.75;;
12145;SDS011;6136;47.032;15.398;2023-09-12T06:22:34;24.77;;;17.38;;
12145;SDS011;6136;47.032;15.398;2023-09-12T06:25:02;24.10;;;17.58;;
12145;SDS011;6136;47.032;15.398;2023-09-12T06:27:31;22.23;;;16.40;;
12145;SDS011;6136;47.032;15.398;2023-09-12T06:29:59;21.45;;;16.25;;
12145;SDS011;6136;47.032;15.398;2023-09-12T06:32:27;18.88;;;15.25;;
12145;SDS011;6136;47.032;15.398;2023-09-12T06:34:55;17.10;;;15.13;;
12145;SDS011;6136;47.032;15.398;2023-09-12T06:37:25;25.30;;;15.90;;
12145;SDS011;6136;47.032;15.398;2023-09-12T06:39:53;20.40;;;15.73;;
12145;SDS011;6136;47.032;15.398;2023-09-12T06:42:21;25.20;;;15.63;;
12145;SDS011;6136;47.032;15.398;2023-09-12T06:44:50;20.42;;;15.07;;
12145;SDS011;6136;47.032;15.398;2023-09-12T06:47:18;18.02;;;14.52;;
12145;SDS011;6136;47.032;15.398;2023-09-12T06:49:46;21.63;;;14.27;;
12145;SDS011;6136;47.032;15.398;2023-09-12T06:52:20;18.50;;;14.73;;
12145;SDS011;6136;47.032;15.398;2023-09-12T06:54:49;17.40;;;14.35;;
12145;SDS011;6136;47.032;15.398;2023-09-12T06:57:18;21.55;;;15.80;;
12145;SDS011;6136;47.032;15.398;2023-09-12T06:59:46;20.23;;;14.38;;
12145;SDS011;6136;47.032;15.398;2023-09-12T07:02:16;18.10;;;15.02;;
12145;SDS011;6136;47.032;15.398;2023-09-12T07:04:45;17.70;;;13.70;;
12145;SDS011;6136;47.032;15.398;2023-09-12T07:07:13;15.57;;;13.30;;
12145;SDS011;6136;47.032;15.398;2023-09-12T07:09:41;17.30;;;12.85;;
12145;SDS011;6136;47.032;15.398;2023-09-12T07:12:11;18.33;;;11.30;;
12145;SDS011;6136;47.032;15.398;2023-09-12T07:14:39;21.23;;;12.32;;
12145;SDS011;6136;47.032;15.398;2023-09-12T07:17:07;14.60;;;11.90;;
12145;SDS011;6136;47.032;15.398;2023-09-12T07:19:36;17.73;;;10.90;;
12145;SDS011;6136;47.032;15.398;2023-09-12T07:22:04;19.00;;;11.88;;
12145;SDS011;6136;47.032;15.398;2023-09-12T07:24:32;19.42;;;12.13;;
12145;SDS011;6136;47.032;15.398;2023-09-12T07:27:00;20.10;;;11.27;;
12145;SDS011;6136;47.032;15.398;2023-09-12T07:29:30;20.70;;;10.02;;
12145;SDS011;6136;47.032;15.398;2023-09-12T07:31:58;18.45;;;11.18;;
12145;SDS011;6136;47.032;15.398;2023-09-12T07:34:27;15.02;;;10.07;;
12145;SDS011;6136;47.032;15.398;2023-09-12T07:36:55;18.83;;;10.60;;
12145;SDS011;6136;47.032;15.398;2023-09-12T07:39:23;26.52;;;10.63;;
12145;SDS011;6136;47.032;15.398;2023-09-12T07:41:52;17.98;;;11.27;;
12145;SDS011;6136;47.032;15.398;2023-09-12T07:44:20;18.17;;;10.40;;
12145;SDS011;6136;47.032;15.398;2023-09-12T07:46:49;15.10;;;9.52;;
12145;SDS011;6136;47.032;15.398;2023-09-12T07:49:18;22.17;;;9.82;;
12145;SDS011;6136;47.032;15.398;2023-09-12T07:51:46;14.15;;;9.95;;
12145;SDS011;6136;47.032;15.398;2023-09-12T07:54:14;9.65;;;8.73;;
12145;SDS011;6136;47.032;15.398;2023-09-12T07:56:44;18.17;;;10.20;;
12145;SDS011;6136;47.032;15.398;2023-09-12T07:59:12;11.48;;;9.50;;
12145;SDS011;6136;47.032;15.398;2023-09-12T08:01:41;12.00;;;9.38;;
12145;SDS011;6136;47.032;15.398;2023-09-12T08:04:11;10.93;;;9.60;;
12145;SDS011;6136;47.032;15.398;2023-09-12T08:06:41;12.23;;;9.60;;
12145;SDS011;6136;47.032;15.398;2023-09-12T08:09:22;11.25;;;9.85;;
12145;SDS011;6136;47.032;15.398;2023-09-12T08:11:50;13.82;;;9.77;;
12145;SDS011;6136;47.032;15.398;2023-09-12T08:14:18;11.35;;;9.48;;
12145;SDS011;6136;47.032;15.398;2023-09-12T08:16:48;12.43;;;10.18;;
12145;SDS011;6136;47.032;15.398;2023-09-12T08:19:17;10.35;;;8.35;;
12145;SDS011;6136;47.032;15.398;2023-09-12T08:21:45;13.38;;;9.48;;
12145;SDS011;6136;47.032;15.398;2023-09-12T08:24:13;13.55;;;8.20;;
12145;SDS011;6136;47.032;15.398;2023-09-12T08:26:42;10.63;;;8.50;;
12145;SDS011;6136;47.032;15.398;2023-09-12T08:29:10;9.63;;;8.27;;
12145;SDS011;6136;47.032;15.398;2023-09-12T08:31:38;12.07;;;8.70;;
12145;SDS011;6136;47.032;15.398;2023-09-12T08:34:06;10.82;;;8.75;;
12145;SDS011;6136;47.032;15.398;2023-09-12T08:36:36;9.57;;;8.68;;
12145;SDS011;6136;47.032;15.398;2023-09-12T08:39:04;13.07;;;8.75;;
12145;SDS011;6136;47.032;15.398;2023-09-12T08:41:34;10.48;;;8.45;;
12145;SDS011;6136;47.032;15.398;2023-09-12T08:44:03;13.77;;;8.90;;
12145;SDS011;6136;47.032;15.398;2023-09-12T08:46:32;11.57;;;8.85;;
12145;SDS011;6136;47.032;15.398;2023-09-12T08:49:00;12.52;;;8.80;;
12145;SDS011;6136;47.032;15.398;2023-09-12T08:51:29;10.23;;;8.43;;
12145;SDS011;6136;47.032;15.398;2023-09-12T08:54:00;15.77;;;8.60;;
12145;SDS011;6136;47.032;15.398;2023-09-12T08:56:32;8.77;;;7.93;;
12145;SDS011;6136;47.032;15.398;2023-09-12T08:59:04;12.65;;;9.13;;
12145;SDS011;6136;47.032;15.398;2023-09-12T09:01:33;10.63;;;8.23;;
12145;SDS011;6136;47.032;15.398;2023-09-12T09:04:03;9.73;;;8.20;;
12145;SDS011;6136;47.032;15.398;2023-09-12T09:06:32;9.60;;;8.10;;
12145;SDS011;6136;47.032;15.398;2023-09-12T09:09:05;10.80;;;8.73;;
12145;SDS011;6136;47.032;15.398;2023-09-12T09:11:35;13.35;;;8.18;;
12145;SDS011;6136;47.032;15.398;2023-09-12T09:14:03;13.10;;;7.75;;
12145;SDS011;6136;47.032;15.398;2023-09-12T09:16:31;8.82;;;7.93;;
12145;SDS011;6136;47.032;15.398;2023-09-12T09:19:02;8.70;;;8.02;;
12145;SDS011;6136;47.032;15.398;2023-09-12T09:21:33;8.50;;;7.60;;
12145;SDS011;6136;47.032;15.398;2023-09-12T09:24:03;12.50;;;8.80;;
12145;SDS011;6136;47.032;15.398;2023-09-12T09:26:45;15.82;;;8.07;;
12145;SDS011;6136;47.032;15.398;2023-09-12T09:29:14;12.00;;;8.48;;
12145;SDS011;6136;47.032;15.398;2023-09-12T09:31:44;8.80;;;7.88;;
12145;SDS011;6136;47.032;15.398;2023-09-12T09:34:14;13.68;;;9.10;;
12145;SDS011;6136;47.032;15.398;2023-09-12T09:36:43;9.13;;;8.23;;
12145;SDS011;6136;47.032;15.398;2023-09-12T09:39:12;10.65;;;8.50;;
12145;SDS011;6136;47.032;15.398;2023-09-12T09:41:41;10.20;;;8.13;;
12145;SDS011;6136;47.032;15.398;2023-09-12T09:44:10;8.93;;;8.13;;
12145;SDS011;6136;47.032;15.398;2023-09-12T09:46:39;9.38;;;8.20;;
12145;SDS011;6136;47.032;15.398;2023-09-12T09:49:11;10.88;;;8.27;;
12145;SDS011;6136;47.032;15.398;2023-09-12T09:51:42;8.90;;;8.07;;
12145;SDS011;6136;47.032;15.398;2023-09-12T09:54:10;11.15;;;8.50;;
12145;SDS011;6136;47.032;15.398;2023-09-12T09:56:45;9.70;;;8.45;;
12145;SDS011;6136;47.032;15.398;2023-09-12T09:59:16;8.98;;;8.18;;
12145;SDS011;6136;47.032;15.398;2023-09-12T10:01:46;14.13;;;9.13;;
12145;SDS011;6136;47.032;15.398;2023-09-12T10:04:17;10.50;;;7.93;;
12145;SDS011;6136;47.032;15.398;2023-09-12T10:06:46;11.85;;;8.48;;
12145;SDS011;6136;47.032;15.398;2023-09-12T10:09:14;15.70;;;7.78;;
12145;SDS011;6136;47.032;15.398;2023-09-12T10:11:44;18.52;;;9.32;;
12145;SDS011;6136;47.032;15.398;2023-09-12T10:14:17;8.95;;;7.95;;
12145;SDS011;6136;47.032;15.398;2023-09-12T10:16:48;15.80;;;7.72;;
12145;SDS011;6136;47.032;15.398;2023-09-12T10:19:18;9.05;;;8.05;;
12145;SDS011;6136;47.032;15.398;2023-09-12T10:21:50;8.13;;;7.43;;
12145;SDS011;6136;47.032;15.398;2023-09-12T10:24:26;9.68;;;7.65;;
12145;SDS011;6136;47.032;15.398;2023-09-12T10:26:55;8.95;;;7.95;;
12145;SDS011;6136;47.032;15.398;2023-09-12T10:29:25;10.50;;;8.43;;
12145;SDS011;6136;47.032;15.398;2023-09-12T10:31:54;9.73;;;8.45;;
12145;SDS011;6136;47.032;15.398;2023-09-12T10:34:24;8.27;;;7.50;;
12145;SDS011;6136;47.032;15.398;2023-09-12T10:36:53;9.05;;;7.60;;
12145;SDS011;6136;47.032;15.398;2023-09-12T10:39:27;9.23;;;8.32;;
12145;SDS011;6136;47.032;15.398;2023-09-12T10:41:57;11.63;;;8.52;;
12145;SDS011;6136;47.032;15.398;2023-09-12T10:44:28;9.75;;;8.75;;
12145;SDS011;6136;47.032;15.398;2023-09-12T10:46:57;9.10;;;8.20;;
12145;SDS011;6136;47.032;15.398;2023-09-12T10:49:26;10.48;;;9.20;;
12145;SDS011;6136;47.032;15.398;2023-09-12T10:51:55;10.57;;;8.80;;
12145;SDS011;6136;47.032;15.398;2023-09-12T10:54:25;8.48;;;7.72;;
12145;SDS011;6136;47.032;15.398;2023-09-12T10:57:03;9.50;;;8.55;;
12145;SDS011;6136;47.032;15.398;2023-09-12T10:59:34;10.98;;;8.57;;
12145;SDS011;6136;47.032;15.398;2023-09-12T11:04:57;8.43;;;7.63;;
12145;SDS011;6136;47.032;15.398;2023-09-12T11:07:29;8.82;;;8.02;;
12145;SDS011;6136;47.032;15.398;2023-09-12T11:10:19;8.88;;;8.07;;
12145;SDS011;6136;47.032;15.398;2023-09-12T11:12:49;9.27;;;8.38;;
12145;SDS011;6136;47.032;15.398;2023-09-12T11:15:20;9.77;;;8.90;;
12145;SDS011;6136;47.032;15.398;2023-09-12T11:17:59;10.00;;;8.93;;
12145;SDS011;6136;47.032;15.398;2023-09-12T11:20:49;9.05;;;8.27;;
12145;SDS011;6136;47.032;15.398;2023-09-12T11:23:20;9.38;;;8.43;;
12145;SDS011;6136;47.032;15.398;2023-09-12T11:25:48;8.77;;;8.02;;
12145;SDS011;6136;47.032;15.398;2023-09-12T11:28:30;10.75;;;8.48;;
12145;SDS011;6136;47.032;15.398;2023-09-12T11:31:00;8.50;;;7.78;;
12145;SDS011;6136;47.032;15.398;2023-09-12T11:33:29;8.57;;;7.78;;
12145;SDS011;6136;47.032;15.398;2023-09-12T11:35:59;9.38;;;8.68;;
12145;SDS011;6136;47.032;15.398;2023-09-12T11:38:30;8.95;;;8.25;;
12145;SDS011;6136;47.032;15.398;2023-09-12T11:40:59;9.13;;;8.35;;
12145;SDS011;6136;47.032;15.398;2023-09-12T11:43:27;8.52;;;7.70;;
12145;SDS011;6136;47.032;15.398;2023-09-12T11:45:56;9.38;;;8.45;;
12145;SDS011;6136;47.032;15.398;2023-09-12T11:48:26;9.13;;;7.55;;
12145;SDS011;6136;47.032;15.398;2023-09-12T11:50:57;8.80;;;8.00;;
12145;SDS011;6136;47.032;15.398;2023-09-12T11:53:26;9.48;;;8.45;;
12145;SDS011;6136;47.032;15.398;2023-09-12T11:55:58;10.07;;;8.50;;
12145;SDS011;6136;47.032;15.398;2023-09-12T11:58:27;8.98;;;8.18;;
12145;SDS011;6136;47.032;15.398;2023-09-12T12:00:55;11.00;;;8.07;;
12145;SDS011;6136;47.032;15.398;2023-09-12T12:03:27;9.48;;;8.57;;
12145;SDS011;6136;47.032;15.398;2023-09-12T12:05:56;10.88;;;8.13;;
12145;SDS011;6136;47.032;15.398;2023-09-12T12:08:24;8.30;;;7.50;;
12145;SDS011;6136;47.032;15.398;2023-09-12T12:10:58;8.73;;;8.02;;
12145;SDS011;6136;47.032;15.398;2023-09-12T12:13:26;12.88;;;8.35;;
12145;SDS011;6136;47.032;15.398;2023-09-12T12:16:14;13.57;;;8.77;;
12145;SDS011;6136;47.032;15.398;2023-09-12T12:18:44;9.57;;;8.68;;
12145;SDS011;6136;47.032;15.398;2023-09-12T12:21:12;10.02;;;8.30;;
12145;SDS011;6136;47.032;15.398;2023-09-12T12:23:40;9.68;;;8.88;;
12145;SDS011;6136;47.032;15.398;2023-09-12T12:26:09;9.95;;;8.13;;
12145;SDS011;6136;47.032;15.398;2023-09-12T12:28:37;10.48;;;8.90;;
12145;SDS011;6136;47.032;15.398;2023-09-12T12:31:06;9.65;;;8.70;;
12145;SDS011;6136;47.032;15.398;2023-09-12T12:33:34;9.15;;;8.20;;
12145;SDS011;6136;47.032;15.398;2023-09-12T12:36:24;9.95;;;8.90;;
12145;SDS011;6136;47.032;15.398;2023-09-12T12:38:54;9.65;;;8.85;;
12145;SDS011;6136;47.032;15.398;2023-09-12T12:41:23;9.88;;;9.07;;
12145;SDS011;6136;47.032;15.398;2023-09-12T12:43:56;10.05;;;9.05;;
12145;SDS011;6136;47.032;15.398;2023-09-12T12:46:29;9.18;;;8.38;;
12145;SDS011;6136;47.032;15.398;2023-09-12T12:48:57;10.38;;;8.68;;
12145;SDS011;6136;47.032;15.398;2023-09-12T12:51:27;10.10;;;9.10;;
12145;SDS011;6136;47.032;15.398;2023-09-12T12:54:02;9.82;;;8.85;;
12145;SDS011;6136;47.032;15.398;2023-09-12T12:56:32;12.00;;;8.88;;
12145;SDS011;6136;47.032;15.398;2023-09-12T12:59:01;10.52;;;9.52;;
12145;SDS011;6136;47.032;15.398;2023-09-12T13:01:33;9.45;;;8.65;;
12145;SDS011;6136;47.032;15.398;2023-09-12T13:04:04;9.68;;;8.68;;
12145;SDS011;6136;47.032;15.398;2023-09-12T13:06:35;10.15;;;9.23;;
12145;SDS011;6136;47.032;15.398;2023-09-12T13:09:04;9.52;;;8.75;;
12145;SDS011;6136;47.032;15.398;2023-09-12T13:11:34;9.65;;;8.55;;
12145;SDS011;6136;47.032;15.398;2023-09-12T13:14:03;10.63;;;9.55;;
12145;SDS011;6136;47.032;15.398;2023-09-12T13:16:36;10.10;;;9.10;;
12145;SDS011;6136;47.032;15.398;2023-09-12T13:19:06;9.43;;;8.20;;
12145;SDS011;6136;47.032;15.398;2023-09-12T13:21:35;9.35;;;8.43;;
12145;SDS011;6136;47.032;15.398;2023-09-12T13:24:04;9.50;;;8.60;;
12145;SDS011;6136;47.032;15.398;2023-09-12T13:26:32;9.75;;;8.25;;
12145;SDS011;6136;47.032;15.398;2023-09-12T13:29:01;10.55;;;8.68;;
12145;SDS011;6136;47.032;15.398;2023-09-12T13:31:29;11.93;;;8.80;;
12145;SDS011;6136;47.032;15.398;2023-09-12T13:33:58;10.32;;;8.93;;
12145;SDS011;6136;47.032;15.398;2023-09-12T13:36:26;10.00;;;9.05;;
12145;SDS011;6136;47.032;15.398;2023-09-12T13:38:56;9.43;;;8.57;;
12145;SDS011;6136;47.032;15.398;2023-09-12T13:41:24;12.75;;;9.18;;
12145;SDS011;6136;47.032;15.398;2023-09-12T13:43:53;10.30;;;8.90;;
12145;SDS011;6136;47.032;15.398;2023-09-12T13:46:21;9.25;;;8.35;;
12145;SDS011;6136;47.032;15.398;2023-09-12T13:48:49;9.55;;;8.60;;
12145;SDS011;6136;47.032;15.398;2023-09-12T13:51:18;8.90;;;8.00;;
12145;SDS011;6136;47.032;15.398;2023-09-12T13:53:46;9.60;;;8.70;;
12145;SDS011;6136;47.032;15.398;2023-09-12T13:56:15;10.50;;;8.68;;
12145;SDS011;6136;47.032;15.398;2023-09-12T13:58:44;9.48;;;7.63;;
12145;SDS011;6136;47.032;15.398;2023-09-12T14:01:13;13.63;;;8.05;;
12145;SDS011;6136;47.032;15.398;2023-09-12T14:03:54;9.05;;;8.15;;
12145;SDS011;6136;47.032;15.398;2023-09-12T14:06:22;12.27;;;7.50;;
12145;SDS011;6136;47.032;15.398;2023-09-12T14:08:51;8.27;;;7.47;;
12145;SDS011;6136;47.032;15.398;2023-09-12T14:11:21;11.18;;;8.38;;
12145;SDS011;6136;47.032;15.398;2023-09-12T14:13:59;8.30;;;7.60;;
12145;SDS011;6136;47.032;15.398;2023-09-12T14:16:38;8.20;;;7.55;;
12145;SDS011;6136;47.032;15.398;2023-09-12T14:19:09;10.68;;;8.25;;
12145;SDS011;6136;47.032;15.398;2023-09-12T14:21:38;13.32;;;8.57;;
12145;SDS011;6136;47.032;15.398;2023-09-12T14:24:08;7.78;;;7.07;;
12145;SDS011;6136;47.032;15.398;2023-09-12T14:26:39;12.38;;;7.25;;
12145;SDS011;6136;47.032;15.398;2023-09-12T14:29:08;10.32;;;9.00;;
12145;SDS011;6136;47.032;15.398;2023-09-12T14:31:38;12.20;;;7.50;;
12145;SDS011;6136;47.032;15.398;2023-09-12T14:34:17;9.63;;;8.35;;
12145;SDS011;6136;47.032;15.398;2023-09-12T14:36:45;8.77;;;7.82;;
12145;SDS011;6136;47.032;15.398;2023-09-12T14:39:14;8.93;;;7.43;;
12145;SDS011;6136;47.032;15.398;2023-09-12T14:41:45;9.27;;;8.30;;
12145;SDS011;6136;47.032;15.398;2023-09-12T14:44:19;13.63;;;8.20;;
12145;SDS011;6136;47.032;15.398;2023-09-12T14:46:49;8.93;;;8.13;;
12145;SDS011;6136;47.032;15.398;2023-09-12T14:49:19;10.95;;;8.35;;